Terminal Aerodrome Forecast
Issued by NWS Austin/San Antonio, TX

Home | Current Version | Previous Version | Text Only | Print | Product List | Glossary On
Versions: 1 2 3 4 5 6 7 8 9 10 11 12 13 14 15 16 17 18 19 20 21 22 23 24 25 26 27 28 29
936
FTUS44 KEWX 201315 AAB
TAFAUS
TAF AMD
KAUS 201315Z 2013/2118 05006KT P6SM VCSH BKN006 BKN028 OVC100
      TEMPO 2013/2015 -RA OVC005
     FM201500 33004KT P6SM FEW070 BKN100
     FM202000 24004KT P6SM FEW150
     FM210900 32010KT P6SM SKC=

USA.gov is the U.S. government's official web portal to all federal, state and local government web resources and services.